createdAt,value
2022-07-29T00:01:42.360Z,91.13
2022-07-29T00:04:11.139Z,91.22
2022-07-29T00:06:39.442Z,91.21
2022-07-29T00:09:08.274Z,91.21
2022-07-29T00:11:36.694Z,91.07
2022-07-29T00:14:04.942Z,91.14
2022-07-29T00:16:33.320Z,91.39
2022-07-29T00:19:02.399Z,91.46
2022-07-29T00:21:30.903Z,91.57
2022-07-29T00:23:59.229Z,91.72
2022-07-29T00:26:28.884Z,91.93
2022-07-29T00:29:30.806Z,92.25
2022-07-29T00:31:45.790Z,92.42
2022-07-29T00:34:32.731Z,92.78
2022-07-29T00:37:01.068Z,92.83
2022-07-29T00:39:29.311Z,93.13
2022-07-29T00:41:57.570Z,93.01
2022-07-29T00:44:25.966Z,93.13
2022-07-29T00:46:54.346Z,93.43
2022-07-29T00:49:22.752Z,93.52
2022-07-29T00:51:51.482Z,93.46
2022-07-29T00:54:19.868Z,93.44
2022-07-29T00:56:48.252Z,93.72
2022-07-29T00:59:16.587Z,93.57
2022-07-29T01:01:44.879Z,93.55
2022-07-29T01:04:13.443Z,93.50
2022-07-29T01:06:43.986Z,93.66
2022-07-29T01:09:13.500Z,93.83
2022-07-29T01:11:42.156Z,93.81
2022-07-29T01:14:11.623Z,93.80
2022-07-29T01:16:50.334Z,94.16
2022-07-29T01:19:38.221Z,94.04
2022-07-29T01:22:25.262Z,94.32
2022-07-29T01:25:24.776Z,94.43
2022-07-29T01:28:31.422Z,94.43
2022-07-29T01:31:01.877Z,94.68
2022-07-29T01:33:50.558Z,94.97
2022-07-29T01:36:29.740Z,94.99
2022-07-29T01:39:15.299Z,94.79
2022-07-29T01:42:42.864Z,94.73
2022-07-29T01:45:18.615Z,94.61
2022-07-29T01:48:11.709Z,94.94
2022-07-29T01:50:53.375Z,94.88
2022-07-29T01:53:37.999Z,95.14
2022-07-29T01:56:10.095Z,95.24
2022-07-29T01:58:41.966Z,95.31
2022-07-29T02:01:12.748Z,95.35
2022-07-29T02:03:46.306Z,95.38
2022-07-29T02:06:20.125Z,95.41
2022-07-29T02:08:50.247Z,95.47
2022-07-29T02:11:19.003Z,95.18
2022-07-29T02:13:48.688Z,95.14
2022-07-29T02:16:20.389Z,95.28
2022-07-29T02:18:52.350Z,95.39
2022-07-29T02:21:25.931Z,95.39
2022-07-29T02:23:55.761Z,95.44
2022-07-29T02:26:27.023Z,95.32
2022-07-29T02:28:58.458Z,94.89
2022-07-29T02:31:31.490Z,94.82
2022-07-29T02:34:01.276Z,94.98
2022-07-29T02:36:31.160Z,94.83
2022-07-29T02:39:01.899Z,94.98
2022-07-29T02:41:46.472Z,94.96
2022-07-29T02:44:17.645Z,94.74
2022-07-29T02:46:54.648Z,94.78
2022-07-29T02:49:25.723Z,94.78
2022-07-29T02:52:08.121Z,94.67
2022-07-29T02:54:50.230Z,94.65
2022-07-29T02:57:31.511Z,94.83
2022-07-29T03:00:05.599Z,94.78
2022-07-29T03:02:39.514Z,94.60
2022-07-29T03:05:10.885Z,94.44
2022-07-29T03:07:42.013Z,94.55
2022-07-29T03:10:11.100Z,94.37
2022-07-29T03:12:43.092Z,94.38
2022-07-29T03:15:12.165Z,94.43
2022-07-29T03:17:40.976Z,94.50
2022-07-29T03:20:10.210Z,94.25
2022-07-29T03:22:49.678Z,94.58
2022-07-29T03:25:20.502Z,94.80
2022-07-29T03:27:49.630Z,94.80
2022-07-29T03:30:22.149Z,94.85
2022-07-29T03:32:52.713Z,94.66
2022-07-29T03:35:21.667Z,94.50
2022-07-29T03:37:50.330Z,94.91
2022-07-29T03:40:25.639Z,95.46
2022-07-29T03:42:56.695Z,95.58
2022-07-29T03:45:26.500Z,95.65
2022-07-29T03:48:00.946Z,95.69
2022-07-29T03:50:34.313Z,95.78
2022-07-29T03:53:03.763Z,95.52
2022-07-29T03:55:44.337Z,95.23
2022-07-29T03:58:14.722Z,94.91
2022-07-29T04:00:45.011Z,94.74
2022-07-29T04:03:14.377Z,94.91
2022-07-29T04:05:44.264Z,94.83
2022-07-29T04:08:12.622Z,95.43
2022-07-29T04:10:43.399Z,95.65
2022-07-29T04:13:11.660Z,96.09
2022-07-29T04:15:39.912Z,96.02
2022-07-29T04:18:08.255Z,95.87
2022-07-29T04:20:36.526Z,95.63
2022-07-29T04:23:04.742Z,95.46
2022-07-29T04:25:32.974Z,95.49
2022-07-29T04:28:01.261Z,95.23
2022-07-29T04:30:31.016Z,95.15
2022-07-29T04:33:01.990Z,94.97
2022-07-29T04:35:38.470Z,94.98
2022-07-29T04:38:15.729Z,94.92
2022-07-29T04:40:45.527Z,94.94
2022-07-29T04:43:16.782Z,94.40
2022-07-29T04:45:51.448Z,94.17
2022-07-29T04:48:22.923Z,93.40
2022-07-29T04:50:55.013Z,92.79
2022-07-29T04:53:23.471Z,92.57
2022-07-29T04:55:52.286Z,92.27
2022-07-29T04:58:20.643Z,92.12
2022-07-29T05:00:48.971Z,91.72
2022-07-29T05:03:17.183Z,90.60
2022-07-29T05:05:45.490Z,89.83
2022-07-29T05:08:13.928Z,89.65
2022-07-29T05:10:42.213Z,87.53
2022-07-29T05:13:10.534Z,86.45
2022-07-29T05:15:39.155Z,85.94
2022-07-29T05:18:07.350Z,85.78
2022-07-29T05:20:35.779Z,85.64
2022-07-29T05:23:04.751Z,84.74
2022-07-29T05:25:43.761Z,82.91
2022-07-29T05:28:13.476Z,83.57
2022-07-29T05:30:41.799Z,81.93
2022-07-29T05:33:36.228Z,78.40
2022-07-29T05:36:00.889Z,76.80
2022-07-29T05:38:29.953Z,77.46
2022-07-29T05:41:00.701Z,76.10
2022-07-29T05:43:29.974Z,74.90
2022-07-29T05:45:58.503Z,74.85
2022-07-29T05:48:27.034Z,74.06
2022-07-29T05:50:56.091Z,72.95
2022-07-29T05:53:24.457Z,72.70
2022-07-29T05:55:53.299Z,73.23
2022-07-29T05:58:21.796Z,73.24
2022-07-29T06:00:50.415Z,72.70
2022-07-29T06:03:18.751Z,72.63
2022-07-29T06:05:47.031Z,71.87
2022-07-29T06:08:15.353Z,71.80
2022-07-29T06:10:43.722Z,72.02
2022-07-29T06:13:12.617Z,72.18
2022-07-29T06:15:41.041Z,72.12
2022-07-29T06:18:11.216Z,71.05
2022-07-29T06:20:39.503Z,69.55
2022-07-29T06:23:07.819Z,70.89
2022-07-29T06:25:37.734Z,69.61
2022-07-29T06:28:06.094Z,69.29
2022-07-29T06:30:34.486Z,67.97
2022-07-29T06:33:03.845Z,67.28
2022-07-29T06:35:38.962Z,67.73
2022-07-29T06:38:31.714Z,68.45
2022-07-29T06:41:03.866Z,69.36
2022-07-29T06:43:36.275Z,68.76
2022-07-29T06:46:22.071Z,69.20
2022-07-29T06:48:51.191Z,67.11
2022-07-29T06:51:22.575Z,66.27
2022-07-29T06:54:01.653Z,65.27
2022-07-29T06:56:38.965Z,65.25
2022-07-29T06:59:10.185Z,65.35
2022-07-29T07:01:40.653Z,64.93
2022-07-29T07:04:10.700Z,64.53
2022-07-29T07:06:39.249Z,65.33
2022-07-29T07:09:07.721Z,66.05
2022-07-29T07:11:36.495Z,65.89
2022-07-29T07:14:04.826Z,65.96
2022-07-29T07:16:33.671Z,65.85
2022-07-29T07:19:02.559Z,62.61
2022-07-29T07:21:31.363Z,62.33
2022-07-29T07:24:00.903Z,62.03
2022-07-29T07:26:29.297Z,61.29
2022-07-29T07:28:57.832Z,61.48
2022-07-29T07:31:26.259Z,61.49
2022-07-29T07:33:54.823Z,61.51
2022-07-29T07:36:24.337Z,60.46
2022-07-29T07:38:52.616Z,59.97
2022-07-29T07:41:22.635Z,60.32
2022-07-29T07:43:50.907Z,59.64
2022-07-29T07:46:19.273Z,60.59
2022-07-29T07:48:47.641Z,58.99
2022-07-29T07:51:15.850Z,60.03
2022-07-29T07:53:45.796Z,59.54
2022-07-29T07:56:14.113Z,60.28
2022-07-29T07:58:42.360Z,58.64
2022-07-29T08:01:11.042Z,58.56
2022-07-29T08:03:40.024Z,58.31
2022-07-29T08:06:08.358Z,58.94
2022-07-29T08:08:36.685Z,59.48
2022-07-29T08:11:09.405Z,60.40
2022-07-29T08:13:39.539Z,57.68
2022-07-29T08:16:16.735Z,56.89
2022-07-29T08:18:46.844Z,57.38
2022-07-29T08:21:16.667Z,56.45
2022-07-29T08:24:00.691Z,56.19
2022-07-29T08:26:30.368Z,58.98
2022-07-29T08:28:58.595Z,57.99
2022-07-29T08:31:26.971Z,58.28
2022-07-29T08:33:57.385Z,57.35
2022-07-29T08:36:27.579Z,54.72
2022-07-29T08:38:56.308Z,54.21
2022-07-29T08:41:24.694Z,55.80
2022-07-29T08:43:53.499Z,55.95
2022-07-29T08:46:23.185Z,55.27
2022-07-29T08:48:51.764Z,55.24
2022-07-29T08:51:21.755Z,55.53
2022-07-29T08:53:51.462Z,53.99
2022-07-29T08:56:20.920Z,52.93
2022-07-29T08:58:52.359Z,53.32
2022-07-29T09:01:35.998Z,54.25
2022-07-29T09:04:12.305Z,54.67
2022-07-29T09:06:45.613Z,52.58
2022-07-29T09:09:14.901Z,50.58
2022-07-29T09:11:44.661Z,50.70
2022-07-29T09:14:14.694Z,51.36
2022-07-29T09:16:57.498Z,51.55
2022-07-29T09:19:27.720Z,52.25
2022-07-29T09:22:03.477Z,50.86
2022-07-29T09:24:35.587Z,52.22
2022-07-29T09:27:11.345Z,50.96
2022-07-29T09:29:40.382Z,53.38
2022-07-29T09:32:10.962Z,49.65
2022-07-29T09:34:39.583Z,49.67
2022-07-29T09:37:08.183Z,50.66
2022-07-29T09:39:45.323Z,50.00
2022-07-29T09:42:16.718Z,50.57
2022-07-29T09:44:49.303Z,51.21
2022-07-29T09:47:19.617Z,51.05
2022-07-29T09:50:01.583Z,49.49
2022-07-29T09:52:31.336Z,48.74
2022-07-29T09:55:17.819Z,47.57
2022-07-29T09:57:48.016Z,47.10
2022-07-29T10:00:19.960Z,47.76
2022-07-29T10:02:48.653Z,48.04
2022-07-29T10:05:26.674Z,47.52
2022-07-29T10:08:06.052Z,47.50
2022-07-29T10:10:36.867Z,47.75
2022-07-29T10:13:16.021Z,47.31
2022-07-29T10:15:47.411Z,47.02
2022-07-29T10:18:18.536Z,47.75
2022-07-29T10:20:47.017Z,46.26
2022-07-29T10:23:15.698Z,47.11
2022-07-29T10:25:46.512Z,48.23
2022-07-29T10:28:16.785Z,46.13
2022-07-29T10:30:46.861Z,45.16
2022-07-29T10:33:33.525Z,46.15
2022-07-29T10:36:27.159Z,47.23
2022-07-29T10:38:55.861Z,45.09
2022-07-29T10:41:56.173Z,45.60
2022-07-29T10:44:26.805Z,44.97
2022-07-29T10:46:56.003Z,44.99
2022-07-29T10:49:31.197Z,47.24
2022-07-29T10:52:07.020Z,45.14
2022-07-29T10:54:43.990Z,46.02
2022-07-29T10:57:52.295Z,45.59
2022-07-29T11:00:16.887Z,45.79
2022-07-29T11:02:50.172Z,45.61
2022-07-29T11:05:20.578Z,46.01
2022-07-29T11:08:19.945Z,45.12
2022-07-29T11:10:51.401Z,44.40
2022-07-29T11:13:58.295Z,43.27
2022-07-29T11:16:26.983Z,44.99
2022-07-29T11:19:13.629Z,45.20
2022-07-29T11:21:55.285Z,45.39
2022-07-29T11:24:30.015Z,44.14
2022-07-29T11:27:22.087Z,45.56
2022-07-29T11:29:58.685Z,46.02
2022-07-29T11:32:41.565Z,46.54
2022-07-29T11:35:38.075Z,45.05
2022-07-29T11:38:23.757Z,45.55
2022-07-29T11:41:23.319Z,47.37
2022-07-29T11:44:00.237Z,46.02
2022-07-29T11:46:53.765Z,45.59
2022-07-29T11:49:32.224Z,46.83
2022-07-29T11:52:05.561Z,46.58
2022-07-29T11:54:38.846Z,48.05
2022-07-29T11:57:29.531Z,47.29
2022-07-29T12:00:14.579Z,46.05
2022-07-29T12:02:48.559Z,46.39
2022-07-29T12:05:36.494Z,42.14
2022-07-29T12:08:22.782Z,42.95
2022-07-29T12:10:52.968Z,42.96
2022-07-29T12:13:22.789Z,41.08
2022-07-29T12:16:06.230Z,41.71
2022-07-29T12:18:34.651Z,41.96
2022-07-29T12:21:07.539Z,42.22
2022-07-29T12:23:36.527Z,41.74
2022-07-29T12:26:07.334Z,41.31
2022-07-29T12:28:40.017Z,42.64
2022-07-29T12:31:15.180Z,40.95
2022-07-29T12:34:03.526Z,41.58
2022-07-29T12:36:31.994Z,42.93
2022-07-29T12:39:00.287Z,41.43
2022-07-29T12:41:30.266Z,42.37
2022-07-29T12:43:58.526Z,41.99
2022-07-29T12:46:26.938Z,40.95
2022-07-29T12:48:56.182Z,41.26
2022-07-29T12:51:39.341Z,41.64
2022-07-29T12:54:14.697Z,42.32
2022-07-29T12:56:45.438Z,40.51
2022-07-29T12:59:14.603Z,40.97
2022-07-29T13:01:43.526Z,39.89
2022-07-29T13:04:12.252Z,41.13
2022-07-29T13:06:50.868Z,41.72
2022-07-29T13:09:42.983Z,41.40
2022-07-29T13:12:14.106Z,41.43
2022-07-29T13:14:44.938Z,40.88
2022-07-29T13:17:14.648Z,41.54
2022-07-29T13:19:54.039Z,37.95
2022-07-29T13:22:25.849Z,37.84
2022-07-29T13:25:03.133Z,38.17
2022-07-29T13:27:34.458Z,39.31
2022-07-29T13:30:06.762Z,40.40
2022-07-29T13:32:37.472Z,39.50
2022-07-29T13:35:08.893Z,39.42
2022-07-29T13:37:39.707Z,40.28
2022-07-29T13:40:11.059Z,39.12
2022-07-29T13:42:40.222Z,40.72
2022-07-29T13:45:09.825Z,41.08
2022-07-29T13:47:38.935Z,40.05
2022-07-29T13:50:09.240Z,39.88
2022-07-29T13:52:38.713Z,39.89
2022-07-29T13:55:07.848Z,41.48
2022-07-29T13:57:36.701Z,43.12
2022-07-29T14:00:05.623Z,44.24
2022-07-29T14:02:36.893Z,42.86
2022-07-29T14:05:08.663Z,40.82
2022-07-29T14:07:39.845Z,40.37
2022-07-29T14:10:09.202Z,40.27
2022-07-29T14:12:37.672Z,40.88
2022-07-29T14:15:06.518Z,40.95
2022-07-29T14:17:34.995Z,43.00
2022-07-29T14:20:04.083Z,43.02
2022-07-29T14:22:32.428Z,40.88
2022-07-29T14:25:05.647Z,41.32
2022-07-29T14:27:44.842Z,42.52
2022-07-29T14:30:13.922Z,41.36
2022-07-29T14:32:42.276Z,41.78
2022-07-29T14:35:10.746Z,41.99
2022-07-29T14:37:40.239Z,42.59
2022-07-29T14:40:10.394Z,41.60
2022-07-29T14:42:39.760Z,40.35
2022-07-29T14:45:10.405Z,40.48
2022-07-29T14:47:40.503Z,40.54
2022-07-29T14:50:09.875Z,42.32
2022-07-29T14:52:38.313Z,41.75
2022-07-29T14:55:19.950Z,42.46
2022-07-29T14:57:51.058Z,42.10
2022-07-29T15:00:19.422Z,41.94
2022-07-29T15:03:04.224Z,42.47
2022-07-29T15:05:33.262Z,43.16
2022-07-29T15:08:01.618Z,43.86
2022-07-29T15:10:30.582Z,45.30
2022-07-29T15:12:58.902Z,45.56
2022-07-29T15:15:27.342Z,46.59
2022-07-29T15:17:55.762Z,47.03
2022-07-29T15:20:26.380Z,47.54
2022-07-29T15:22:56.619Z,48.80
2022-07-29T15:25:27.943Z,50.24
2022-07-29T15:28:01.174Z,50.82
2022-07-29T15:30:34.471Z,51.43
2022-07-29T15:33:04.490Z,50.95
2022-07-29T15:35:33.642Z,52.36
2022-07-29T15:38:09.319Z,52.85
2022-07-29T15:40:42.306Z,53.73
2022-07-29T15:43:10.674Z,54.94
2022-07-29T15:45:40.978Z,56.07
2022-07-29T15:48:10.343Z,56.09
2022-07-29T15:50:47.057Z,56.48
2022-07-29T15:53:15.534Z,56.60
2022-07-29T15:55:44.533Z,56.56
2022-07-29T15:58:12.928Z,55.99
2022-07-29T16:00:41.345Z,56.39
2022-07-29T16:03:09.795Z,56.13
2022-07-29T16:05:38.883Z,56.24
2022-07-29T16:08:07.273Z,56.29
2022-07-29T16:10:35.633Z,56.22
2022-07-29T16:13:04.066Z,56.18
2022-07-29T16:15:32.588Z,56.44
2022-07-29T16:18:01.242Z,57.10
2022-07-29T16:20:29.553Z,57.57
2022-07-29T16:22:57.860Z,57.83
2022-07-29T16:25:43.900Z,57.70
2022-07-29T16:28:14.333Z,57.67
2022-07-29T16:30:42.628Z,58.21
2022-07-29T16:33:10.974Z,58.01
2022-07-29T16:35:40.550Z,58.40
2022-07-29T16:38:08.884Z,59.70
2022-07-29T16:40:37.106Z,60.74
2022-07-29T16:43:05.425Z,61.21
2022-07-29T16:45:46.059Z,61.36
2022-07-29T16:48:15.538Z,61.70
2022-07-29T16:50:46.558Z,61.68
2022-07-29T16:53:14.937Z,61.14
2022-07-29T16:55:43.202Z,61.41
2022-07-29T16:58:11.955Z,61.69
2022-07-29T17:00:40.331Z,61.91
2022-07-29T17:03:08.695Z,62.34
2022-07-29T17:05:52.265Z,63.74
2022-07-29T17:08:23.035Z,64.20
2022-07-29T17:10:51.468Z,65.19
2022-07-29T17:13:19.889Z,66.66
2022-07-29T17:15:48.340Z,68.04
2022-07-29T17:18:16.857Z,69.72
2022-07-29T17:20:45.718Z,70.69
2022-07-29T17:23:13.946Z,71.10
2022-07-29T17:25:42.241Z,72.63
2022-07-29T17:28:10.462Z,73.28
2022-07-29T17:30:38.710Z,75.03
2022-07-29T17:33:07.034Z,75.40
2022-07-29T17:35:54.297Z,75.53
2022-07-29T17:38:22.629Z,75.99
2022-07-29T17:40:50.894Z,75.90
2022-07-29T17:43:19.153Z,76.24
2022-07-29T17:45:49.994Z,76.29
2022-07-29T17:48:20.185Z,76.90
2022-07-29T17:50:49.282Z,77.65
2022-07-29T17:53:17.807Z,77.84
2022-07-29T17:55:48.804Z,79.11
2022-07-29T17:58:17.461Z,79.42
2022-07-29T18:00:45.923Z,80.00
2022-07-29T18:03:15.251Z,80.27
2022-07-29T18:05:44.444Z,80.47
2022-07-29T18:08:13.100Z,81.09
2022-07-29T18:10:41.562Z,81.26
2022-07-29T18:13:12.795Z,81.48
2022-07-29T18:15:41.641Z,81.91
2022-07-29T18:18:10.036Z,82.94
2022-07-29T18:20:38.552Z,83.33
2022-07-29T18:23:06.911Z,83.76
2022-07-29T18:25:35.310Z,83.84
2022-07-29T18:28:04.323Z,83.78
2022-07-29T18:30:34.627Z,84.13
2022-07-29T18:33:21.747Z,84.39
2022-07-29T18:36:04.204Z,84.81
2022-07-29T18:38:41.432Z,85.18
2022-07-29T18:41:09.716Z,86.19
2022-07-29T18:43:38.006Z,86.11
2022-07-29T18:46:06.952Z,86.70
2022-07-29T18:48:35.493Z,86.58
2022-07-29T18:51:09.502Z,87.05
2022-07-29T18:53:38.190Z,87.32
2022-07-29T18:56:06.520Z,87.51
2022-07-29T18:58:37.066Z,87.81
2022-07-29T19:01:06.145Z,88.01
2022-07-29T19:03:35.062Z,88.16
2022-07-29T19:06:03.527Z,88.12
2022-07-29T19:08:32.806Z,88.27
2022-07-29T19:11:01.075Z,88.24
2022-07-29T19:13:29.406Z,88.26
2022-07-29T19:15:57.898Z,88.44
2022-07-29T19:18:26.152Z,88.33
2022-07-29T19:20:54.497Z,88.47
2022-07-29T19:23:23.205Z,88.82
2022-07-29T19:25:53.490Z,89.08
2022-07-29T19:28:22.889Z,89.26
2022-07-29T19:30:52.005Z,89.46
2022-07-29T19:33:21.116Z,89.64
2022-07-29T19:35:54.329Z,89.77
2022-07-29T19:38:23.873Z,89.86
2022-07-29T19:40:53.398Z,89.70
2022-07-29T19:43:51.113Z,89.88
2022-07-29T19:46:10.002Z,90.01
2022-07-29T19:48:38.392Z,89.98
2022-07-29T19:51:06.801Z,90.32
2022-07-29T19:53:35.132Z,90.30
2022-07-29T19:56:04.057Z,90.84
2022-07-29T19:58:32.605Z,90.89
2022-07-29T20:01:01.089Z,90.93
2022-07-29T20:03:29.696Z,91.10
2022-07-29T20:05:58.395Z,91.20
2022-07-29T20:08:26.735Z,91.45
2022-07-29T20:10:56.069Z,91.52
2022-07-29T20:13:25.350Z,91.58
2022-07-29T20:15:53.858Z,91.61
2022-07-29T20:18:22.125Z,91.87
2022-07-29T20:20:50.387Z,92.05
2022-07-29T20:23:19.503Z,92.07
2022-07-29T20:25:48.498Z,92.38
2022-07-29T20:28:16.803Z,92.58
2022-07-29T20:30:45.217Z,92.90
2022-07-29T20:33:16.005Z,93.01
2022-07-29T20:35:44.409Z,93.31
2022-07-29T20:38:17.790Z,93.31
2022-07-29T20:40:46.699Z,93.07
2022-07-29T20:43:14.975Z,93.28
2022-07-29T20:45:43.231Z,93.54
2022-07-29T20:48:13.521Z,93.41
2022-07-29T20:50:42.948Z,93.53
2022-07-29T20:53:11.925Z,93.48
2022-07-29T20:55:40.299Z,93.68
2022-07-29T20:58:08.828Z,93.58
2022-07-29T21:00:37.488Z,93.24
2022-07-29T21:03:05.963Z,93.40
2022-07-29T21:05:34.426Z,93.79
2022-07-29T21:08:02.850Z,93.88
2022-07-29T21:10:31.329Z,94.29
2022-07-29T21:12:59.641Z,94.26
2022-07-29T21:15:29.338Z,94.49
2022-07-29T21:18:06.255Z,94.18
2022-07-29T21:20:34.576Z,93.96
2022-07-29T21:23:02.821Z,94.02
2022-07-29T21:25:31.027Z,94.16
2022-07-29T21:28:18.170Z,94.29
2022-07-29T21:30:46.422Z,95.07
2022-07-29T21:33:14.843Z,95.05
2022-07-29T21:35:59.064Z,95.28
2022-07-29T21:38:31.783Z,95.34
2022-07-29T21:41:00.403Z,95.26
2022-07-29T21:43:29.039Z,95.49
2022-07-29T21:45:58.516Z,95.37
2022-07-29T21:48:28.544Z,95.34
2022-07-29T21:50:57.314Z,95.29
2022-07-29T21:53:27.082Z,95.54
2022-07-29T21:55:55.855Z,95.67
2022-07-29T21:58:24.855Z,95.86
2022-07-29T22:00:54.015Z,95.99
2022-07-29T22:03:22.416Z,96.20
2022-07-29T22:05:50.600Z,96.21
2022-07-29T22:08:21.677Z,96.08
2022-07-29T22:10:49.883Z,96.19
2022-07-29T22:13:18.169Z,96.34
2022-07-29T22:15:47.333Z,96.44
2022-07-29T22:18:20.523Z,96.54
2022-07-29T22:20:50.412Z,96.66
2022-07-29T22:23:18.815Z,96.66
2022-07-29T22:25:47.066Z,96.66
2022-07-29T22:28:15.351Z,96.77
2022-07-29T22:30:43.596Z,96.99
2022-07-29T22:33:16.976Z,96.87
2022-07-29T22:35:48.458Z,97.17
2022-07-29T22:38:18.596Z,97.22
2022-07-29T22:40:48.570Z,97.39
2022-07-29T22:43:17.306Z,97.49
2022-07-29T22:45:45.664Z,97.86
2022-07-29T22:48:14.021Z,98.07
2022-07-29T22:50:42.623Z,98.14
2022-07-29T22:53:10.929Z,98.09
2022-07-29T22:55:39.270Z,98.29
2022-07-29T22:58:07.541Z,98.21
2022-07-29T23:00:35.946Z,98.30
2022-07-29T23:03:04.514Z,98.53
2022-07-29T23:05:33.581Z,98.37
2022-07-29T23:08:01.864Z,98.58
2022-07-29T23:10:30.262Z,98.33
2022-07-29T23:12:58.646Z,98.48
2022-07-29T23:15:26.900Z,98.34
2022-07-29T23:17:55.269Z,98.58
2022-07-29T23:20:23.625Z,98.48
2022-07-29T23:22:51.882Z,98.13
2022-07-29T23:25:20.294Z,98.21
2022-07-29T23:27:48.578Z,98.48
2022-07-29T23:30:16.860Z,98.48
2022-07-29T23:32:45.169Z,98.57
2022-07-29T23:35:13.438Z,98.44
2022-07-29T23:37:41.711Z,98.32
2022-07-29T23:40:14.274Z,98.34
2022-07-29T23:42:43.260Z,98.51
2022-07-29T23:45:13.153Z,98.47
2022-07-29T23:47:42.985Z,98.66
2022-07-29T23:50:12.691Z,98.64
2022-07-29T23:52:42.154Z,98.74
2022-07-29T23:55:37.131Z,98.64
2022-07-29T23:58:00.759Z,98.50
